Kent, Illinois
Current Conditions -  °F | °C
As of 4:55 PM on Thursday 23 Oct 2014 (Local Time) from KFEP Reporting Station
Light Rain Light Rain  
Wind Chill: 54°   Ceiling: 2500
Heat Index: 54°   Visibility: 7mi
Dew Point: 48°   Wind: 5mph
Humidity: 82%   Direction: 190°S
Pressure: 30.06"   Gusts: NA
Location:  42.31°N, 89.9°W
Report Text: KFEP 232155Z AUTO 19004KT 7SM -RA OVC025 12/09 A3006 RMK AO2 P0001 T01200090
Loading
Personal Weather Stations






























Interactive Weather Map New forecast layout! Learn more

10-Day Weather Forecast

Advertisements
Track Severe Weather on mobile